sensor_id;sensor_type;location;lat;lon;timestamp;P1;durP1;ratioP1;P2;durP2;ratioP2
21800;SDS011;11062;51.164;16.924;2022-08-16T06:21:12;24.13;;;16.83;;
21800;SDS011;11062;51.164;16.924;2022-08-16T06:23:38;25.25;;;14.70;;
21800;SDS011;11062;51.164;16.924;2022-08-16T06:26:05;17.60;;;12.75;;
21800;SDS011;11062;51.164;16.924;2022-08-16T06:28:32;13.93;;;10.48;;
21800;SDS011;11062;51.164;16.924;2022-08-16T06:31:01;13.75;;;8.48;;
21800;SDS011;11062;51.164;16.924;2022-08-16T06:33:27;12.30;;;8.82;;
21800;SDS011;11062;51.164;16.924;2022-08-16T06:35:53;9.70;;;7.57;;
21800;SDS011;11062;51.164;16.924;2022-08-16T06:38:25;8.45;;;7.47;;
21800;SDS011;11062;51.164;16.924;2022-08-16T06:41:06;10.80;;;7.57;;
21800;SDS011;11062;51.164;16.924;2022-08-16T06:43:37;12.30;;;7.35;;
21800;SDS011;11062;51.164;16.924;2022-08-16T06:46:05;15.48;;;8.18;;
21800;SDS011;11062;51.164;16.924;2022-08-16T06:48:34;8.68;;;7.20;;
21800;SDS011;11062;51.164;16.924;2022-08-16T06:51:02;11.18;;;6.85;;
21800;SDS011;11062;51.164;16.924;2022-08-16T06:53:30;8.35;;;6.68;;
21800;SDS011;11062;51.164;16.924;2022-08-16T06:55:59;11.05;;;6.78;;
21800;SDS011;11062;51.164;16.924;2022-08-16T06:58:31;7.45;;;6.38;;
21800;SDS011;11062;51.164;16.924;2022-08-16T07:01:03;9.48;;;6.82;;
21800;SDS011;11062;51.164;16.924;2022-08-16T07:03:37;8.95;;;6.93;;
21800;SDS011;11062;51.164;16.924;2022-08-16T07:06:06;14.18;;;6.60;;
21800;SDS011;11062;51.164;16.924;2022-08-16T07:08:36;8.32;;;6.90;;
21800;SDS011;11062;51.164;16.924;2022-08-16T07:11:03;11.45;;;7.47;;
21800;SDS011;11062;51.164;16.924;2022-08-16T07:13:29;9.43;;;7.30;;
21800;SDS011;11062;51.164;16.924;2022-08-16T07:15:57;10.05;;;7.25;;
21800;SDS011;11062;51.164;16.924;2022-08-16T07:18:24;7.50;;;6.63;;
21800;SDS011;11062;51.164;16.924;2022-08-16T07:20:50;8.73;;;6.97;;
21800;SDS011;11062;51.164;16.924;2022-08-16T07:23:22;15.60;;;7.40;;
21800;SDS011;11062;51.164;16.924;2022-08-16T07:25:48;12.50;;;7.35;;
21800;SDS011;11062;51.164;16.924;2022-08-16T07:28:15;12.55;;;7.00;;
21800;SDS011;11062;51.164;16.924;2022-08-16T07:30:43;11.63;;;7.60;;
21800;SDS011;11062;51.164;16.924;2022-08-16T07:33:10;8.95;;;6.75;;
21800;SDS011;11062;51.164;16.924;2022-08-16T07:35:37;13.77;;;8.65;;
21800;SDS011;11062;51.164;16.924;2022-08-16T07:38:03;13.23;;;7.32;;
21800;SDS011;11062;51.164;16.924;2022-08-16T07:40:33;8.93;;;6.72;;
21800;SDS011;11062;51.164;16.924;2022-08-16T07:43:01;10.77;;;7.38;;
21800;SDS011;11062;51.164;16.924;2022-08-16T07:45:32;12.20;;;8.27;;
21800;SDS011;11062;51.164;16.924;2022-08-16T07:48:02;8.18;;;6.70;;
21800;SDS011;11062;51.164;16.924;2022-08-16T07:50:28;7.22;;;5.95;;
21800;SDS011;11062;51.164;16.924;2022-08-16T07:52:54;10.98;;;7.05;;
21800;SDS011;11062;51.164;16.924;2022-08-16T07:55:23;9.00;;;6.32;;
21800;SDS011;11062;51.164;16.924;2022-08-16T07:57:49;11.02;;;7.45;;
21800;SDS011;11062;51.164;16.924;2022-08-16T08:00:16;9.73;;;7.80;;
21800;SDS011;11062;51.164;16.924;2022-08-16T08:02:44;36.15;;;14.50;;
21800;SDS011;11062;51.164;16.924;2022-08-16T08:05:39;59.28;;;19.52;;
21800;SDS011;11062;51.164;16.924;2022-08-16T08:11:09;9.32;;;6.82;;
21800;SDS011;11062;51.164;16.924;2022-08-16T08:13:37;8.82;;;6.15;;
21800;SDS011;11062;51.164;16.924;2022-08-16T08:16:03;14.95;;;8.23;;
21800;SDS011;11062;51.164;16.924;2022-08-16T08:18:29;13.27;;;7.47;;
21800;SDS011;11062;51.164;16.924;2022-08-16T08:26:40;7.40;;;6.10;;
21800;SDS011;11062;51.164;16.924;2022-08-16T08:29:12;11.65;;;8.95;;
21800;SDS011;11062;51.164;16.924;2022-08-16T08:34:44;10.68;;;7.47;;
21800;SDS011;11062;51.164;16.924;2022-08-16T08:37:32;8.60;;;7.20;;
21800;SDS011;11062;51.164;16.924;2022-08-16T08:40:07;16.75;;;11.25;;
21800;SDS011;11062;51.164;16.924;2022-08-16T08:42:41;8.75;;;7.40;;
21800;SDS011;11062;51.164;16.924;2022-08-16T08:47:48;6.60;;;5.90;;
21800;SDS011;11062;51.164;16.924;2022-08-16T08:50:15;15.07;;;7.13;;
21800;SDS011;11062;51.164;16.924;2022-08-16T08:52:44;14.23;;;7.15;;
21800;SDS011;11062;51.164;16.924;2022-08-16T08:55:12;10.23;;;7.50;;
21800;SDS011;11062;51.164;16.924;2022-08-16T08:57:39;12.38;;;7.22;;
21800;SDS011;11062;51.164;16.924;2022-08-16T09:00:07;10.57;;;6.68;;
21800;SDS011;11062;51.164;16.924;2022-08-16T09:02:35;8.65;;;6.35;;
21800;SDS011;11062;51.164;16.924;2022-08-16T09:05:01;10.65;;;7.90;;
21800;SDS011;11062;51.164;16.924;2022-08-16T09:07:28;15.35;;;7.88;;
21800;SDS011;11062;51.164;16.924;2022-08-16T09:09:54;8.77;;;6.18;;
21800;SDS011;11062;51.164;16.924;2022-08-16T09:12:20;7.22;;;6.53;;
21800;SDS011;11062;51.164;16.924;2022-08-16T09:14:47;10.25;;;6.78;;
21800;SDS011;11062;51.164;16.924;2022-08-16T09:17:16;7.43;;;6.72;;
21800;SDS011;11062;51.164;16.924;2022-08-16T09:19:42;7.53;;;6.50;;
21800;SDS011;11062;51.164;16.924;2022-08-16T09:22:08;10.77;;;6.88;;
21800;SDS011;11062;51.164;16.924;2022-08-16T09:24:35;9.90;;;6.50;;
21800;SDS011;11062;51.164;16.924;2022-08-16T09:27:01;7.88;;;6.55;;
21800;SDS011;11062;51.164;16.924;2022-08-16T09:29:27;8.60;;;6.30;;
21800;SDS011;11062;51.164;16.924;2022-08-16T09:31:55;9.00;;;6.65;;
21800;SDS011;11062;51.164;16.924;2022-08-16T09:34:23;7.03;;;5.78;;
21800;SDS011;11062;51.164;16.924;2022-08-16T09:36:50;8.75;;;6.45;;
21800;SDS011;11062;51.164;16.924;2022-08-16T09:39:23;8.27;;;6.35;;
21800;SDS011;11062;51.164;16.924;2022-08-16T09:41:50;13.30;;;6.22;;
21800;SDS011;11062;51.164;16.924;2022-08-16T09:44:25;8.60;;;6.70;;
21800;SDS011;11062;51.164;16.924;2022-08-16T09:46:52;7.03;;;5.80;;
21800;SDS011;11062;51.164;16.924;2022-08-16T09:49:20;7.28;;;5.75;;
21800;SDS011;11062;51.164;16.924;2022-08-16T09:51:47;8.88;;;5.47;;
21800;SDS011;11062;51.164;16.924;2022-08-16T09:54:19;7.28;;;5.57;;
21800;SDS011;11062;51.164;16.924;2022-08-16T09:56:47;6.65;;;5.95;;
21800;SDS011;11062;51.164;16.924;2022-08-16T09:59:13;7.90;;;5.65;;
21800;SDS011;11062;51.164;16.924;2022-08-16T10:01:40;9.68;;;5.30;;
21800;SDS011;11062;51.164;16.924;2022-08-16T10:04:12;6.75;;;5.93;;
21800;SDS011;11062;51.164;16.924;2022-08-16T10:14:25;8.52;;;4.82;;
21800;SDS011;11062;51.164;16.924;2022-08-16T10:17:00;6.57;;;5.22;;
21800;SDS011;11062;51.164;16.924;2022-08-16T10:19:29;5.60;;;5.10;;
21800;SDS011;11062;51.164;16.924;2022-08-16T10:21:56;5.10;;;4.50;;
21800;SDS011;11062;51.164;16.924;2022-08-16T10:24:24;8.35;;;5.43;;
21800;SDS011;11062;51.164;16.924;2022-08-16T10:26:53;6.85;;;5.82;;
21800;SDS011;11062;51.164;16.924;2022-08-16T10:29:21;6.05;;;5.20;;
21800;SDS011;11062;51.164;16.924;2022-08-16T10:31:48;5.80;;;5.05;;
21800;SDS011;11062;51.164;16.924;2022-08-16T10:34:14;8.05;;;5.07;;
21800;SDS011;11062;51.164;16.924;2022-08-16T10:36:40;6.78;;;5.15;;
21800;SDS011;11062;51.164;16.924;2022-08-16T10:39:06;5.50;;;4.80;;
21800;SDS011;11062;51.164;16.924;2022-08-16T10:41:32;8.38;;;5.55;;
21800;SDS011;11062;51.164;16.924;2022-08-16T10:44:05;5.60;;;5.10;;
21800;SDS011;11062;51.164;16.924;2022-08-16T10:46:37;7.05;;;5.25;;
21800;SDS011;11062;51.164;16.924;2022-08-16T10:49:03;7.47;;;5.20;;
21800;SDS011;11062;51.164;16.924;2022-08-16T10:51:29;8.68;;;5.35;;
21800;SDS011;11062;51.164;16.924;2022-08-16T10:54:00;7.43;;;5.75;;
21800;SDS011;11062;51.164;16.924;2022-08-16T10:56:27;7.85;;;5.63;;
21800;SDS011;11062;51.164;16.924;2022-08-16T10:58:53;9.20;;;5.63;;
21800;SDS011;11062;51.164;16.924;2022-08-16T11:01:25;8.27;;;5.68;;
21800;SDS011;11062;51.164;16.924;2022-08-16T11:04:02;7.35;;;6.20;;
21800;SDS011;11062;51.164;16.924;2022-08-16T11:06:55;6.40;;;5.80;;
21800;SDS011;11062;51.164;16.924;2022-08-16T11:09:23;6.32;;;5.63;;
21800;SDS011;11062;51.164;16.924;2022-08-16T11:11:49;6.90;;;5.88;;
21800;SDS011;11062;51.164;16.924;2022-08-16T11:14:28;8.57;;;6.00;;
21800;SDS011;11062;51.164;16.924;2022-08-16T11:25:29;6.88;;;5.40;;
21800;SDS011;11062;51.164;16.924;2022-08-16T11:28:23;10.25;;;5.63;;
21800;SDS011;11062;51.164;16.924;2022-08-16T11:31:38;6.38;;;5.22;;
21800;SDS011;11062;51.164;16.924;2022-08-16T11:34:04;6.57;;;5.95;;
21800;SDS011;11062;51.164;16.924;2022-08-16T11:36:30;6.00;;;5.40;;
21800;SDS011;11062;51.164;16.924;2022-08-16T11:38:57;6.07;;;5.57;;
21800;SDS011;11062;51.164;16.924;2022-08-16T11:41:25;7.43;;;5.65;;
21800;SDS011;11062;51.164;16.924;2022-08-16T11:43:58;6.03;;;5.43;;
21800;SDS011;11062;51.164;16.924;2022-08-16T11:46:27;9.57;;;5.68;;
21800;SDS011;11062;51.164;16.924;2022-08-16T11:48:53;8.57;;;6.32;;
21800;SDS011;11062;51.164;16.924;2022-08-16T11:51:24;8.98;;;5.57;;
21800;SDS011;11062;51.164;16.924;2022-08-16T11:53:57;6.72;;;5.70;;
21800;SDS011;11062;51.164;16.924;2022-08-16T11:56:26;6.47;;;5.78;;
21800;SDS011;11062;51.164;16.924;2022-08-16T11:58:55;6.72;;;6.00;;
21800;SDS011;11062;51.164;16.924;2022-08-16T12:01:22;7.47;;;5.43;;
21800;SDS011;11062;51.164;16.924;2022-08-16T12:03:48;7.57;;;5.65;;
21800;SDS011;11062;51.164;16.924;2022-08-16T12:06:20;6.75;;;5.95;;
21800;SDS011;11062;51.164;16.924;2022-08-16T12:09:12;9.10;;;5.55;;
21800;SDS011;11062;51.164;16.924;2022-08-16T12:14:24;6.60;;;5.72;;
21800;SDS011;11062;51.164;16.924;2022-08-16T12:16:51;7.53;;;5.80;;
21800;SDS011;11062;51.164;16.924;2022-08-16T12:19:23;7.93;;;5.47;;
21800;SDS011;11062;51.164;16.924;2022-08-16T12:21:50;6.55;;;5.45;;
21800;SDS011;11062;51.164;16.924;2022-08-16T12:24:16;9.30;;;5.78;;
21800;SDS011;11062;51.164;16.924;2022-08-16T12:26:47;5.68;;;5.22;;
21800;SDS011;11062;51.164;16.924;2022-08-16T12:29:16;6.43;;;5.15;;
21800;SDS011;11062;51.164;16.924;2022-08-16T12:31:43;6.43;;;5.07;;
21800;SDS011;11062;51.164;16.924;2022-08-16T12:34:11;5.93;;;4.82;;
21800;SDS011;11062;51.164;16.924;2022-08-16T12:36:38;6.95;;;5.00;;
21800;SDS011;11062;51.164;16.924;2022-08-16T12:39:05;5.50;;;5.00;;
21800;SDS011;11062;51.164;16.924;2022-08-16T12:41:37;6.47;;;4.90;;
21800;SDS011;11062;51.164;16.924;2022-08-16T12:44:06;6.25;;;4.70;;
21800;SDS011;11062;51.164;16.924;2022-08-16T13:48:42;6.25;;;5.03;;
21800;SDS011;11062;51.164;16.924;2022-08-16T14:33:00;6.30;;;5.05;;
21800;SDS011;11062;51.164;16.924;2022-08-16T16:09:02;5.75;;;4.85;;
21800;SDS011;11062;51.164;16.924;2022-08-16T16:14:03;6.03;;;4.90;;
21800;SDS011;11062;51.164;16.924;2022-08-16T16:16:34;6.35;;;5.18;;
21800;SDS011;11062;51.164;16.924;2022-08-16T16:28:03;6.10;;;4.57;;
21800;SDS011;11062;51.164;16.924;2022-08-16T16:30:43;5.43;;;4.93;;
21800;SDS011;11062;51.164;16.924;2022-08-16T16:33:12;5.47;;;4.85;;
21800;SDS011;11062;51.164;16.924;2022-08-16T16:45:54;5.68;;;5.13;;
21800;SDS011;11062;51.164;16.924;2022-08-16T16:48:23;7.53;;;5.00;;
21800;SDS011;11062;51.164;16.924;2022-08-16T16:50:50;6.05;;;4.72;;
21800;SDS011;11062;51.164;16.924;2022-08-16T16:53:17;5.75;;;4.53;;
21800;SDS011;11062;51.164;16.924;2022-08-16T16:56:05;9.00;;;4.80;;
21800;SDS011;11062;51.164;16.924;2022-08-16T16:58:33;6.20;;;4.80;;
21800;SDS011;11062;51.164;16.924;2022-08-16T17:01:37;5.10;;;4.50;;
21800;SDS011;11062;51.164;16.924;2022-08-16T17:04:08;10.85;;;4.97;;
21800;SDS011;11062;51.164;16.924;2022-08-16T17:06:36;7.70;;;5.03;;
21800;SDS011;11062;51.164;16.924;2022-08-16T17:09:11;6.70;;;4.90;;
21800;SDS011;11062;51.164;16.924;2022-08-16T17:15:54;8.52;;;5.22;;
21800;SDS011;11062;51.164;16.924;2022-08-16T17:20:58;9.15;;;4.78;;
21800;SDS011;11062;51.164;16.924;2022-08-16T17:29:05;5.28;;;4.47;;
21800;SDS011;11062;51.164;16.924;2022-08-16T17:31:30;8.60;;;4.82;;
21800;SDS011;11062;51.164;16.924;2022-08-16T17:34:00;5.00;;;4.45;;
21800;SDS011;11062;51.164;16.924;2022-08-16T17:36:27;5.28;;;4.78;;
21800;SDS011;11062;51.164;16.924;2022-08-16T17:38:54;5.70;;;4.22;;
21800;SDS011;11062;51.164;16.924;2022-08-16T17:44:17;8.82;;;5.47;;
21800;SDS011;11062;51.164;16.924;2022-08-16T17:49:43;8.48;;;5.30;;
21800;SDS011;11062;51.164;16.924;2022-08-16T17:52:36;7.18;;;4.90;;
21800;SDS011;11062;51.164;16.924;2022-08-16T17:55:05;7.00;;;4.80;;
21800;SDS011;11062;51.164;16.924;2022-08-16T17:57:38;7.82;;;4.70;;
21800;SDS011;11062;51.164;16.924;2022-08-16T18:00:07;6.07;;;4.82;;
21800;SDS011;11062;51.164;16.924;2022-08-16T18:02:39;6.00;;;5.03;;
21800;SDS011;11062;51.164;16.924;2022-08-16T18:05:07;6.72;;;4.60;;
21800;SDS011;11062;51.164;16.924;2022-08-16T18:07:49;10.85;;;5.22;;
21800;SDS011;11062;51.164;16.924;2022-08-16T18:10:16;8.23;;;5.13;;
21800;SDS011;11062;51.164;16.924;2022-08-16T18:12:50;5.57;;;4.65;;
21800;SDS011;11062;51.164;16.924;2022-08-16T18:15:22;10.75;;;5.07;;
21800;SDS011;11062;51.164;16.924;2022-08-16T18:17:50;6.18;;;5.28;;
21800;SDS011;11062;51.164;16.924;2022-08-16T18:20:18;8.73;;;5.13;;
21800;SDS011;11062;51.164;16.924;2022-08-16T18:23:09;7.95;;;4.85;;
21800;SDS011;11062;51.164;16.924;2022-08-16T18:28:32;7.85;;;4.95;;
21800;SDS011;11062;51.164;16.924;2022-08-16T18:36:26;7.07;;;5.45;;
21800;SDS011;11062;51.164;16.924;2022-08-16T18:38:58;12.77;;;5.20;;
21800;SDS011;11062;51.164;16.924;2022-08-16T18:46:58;12.02;;;5.43;;
21800;SDS011;11062;51.164;16.924;2022-08-16T18:49:31;9.32;;;5.57;;
21800;SDS011;11062;51.164;16.924;2022-08-16T18:57:14;10.23;;;5.95;;
21800;SDS011;11062;51.164;16.924;2022-08-16T18:59:48;9.15;;;5.63;;
21800;SDS011;11062;51.164;16.924;2022-08-16T19:07:27;11.82;;;6.20;;
21800;SDS011;11062;51.164;16.924;2022-08-16T19:10:00;11.00;;;6.10;;
21800;SDS011;11062;51.164;16.924;2022-08-16T19:12:32;9.30;;;6.65;;
21800;SDS011;11062;51.164;16.924;2022-08-16T19:15:04;9.23;;;7.05;;
21800;SDS011;11062;51.164;16.924;2022-08-16T19:17:34;14.88;;;8.40;;
21800;SDS011;11062;51.164;16.924;2022-08-16T19:20:03;20.10;;;7.68;;
21800;SDS011;11062;51.164;16.924;2022-08-16T19:31:22;11.05;;;6.13;;
21800;SDS011;11062;51.164;16.924;2022-08-16T19:34:00;12.57;;;6.97;;
21800;SDS011;11062;51.164;16.924;2022-08-16T19:36:32;8.05;;;6.60;;
21800;SDS011;11062;51.164;16.924;2022-08-16T19:39:09;7.95;;;7.03;;
21800;SDS011;11062;51.164;16.924;2022-08-16T19:41:42;11.85;;;6.97;;
21800;SDS011;11062;51.164;16.924;2022-08-16T19:44:17;14.50;;;7.50;;
21800;SDS011;11062;51.164;16.924;2022-08-16T19:46:53;9.52;;;6.43;;
21800;SDS011;11062;51.164;16.924;2022-08-16T20:03:17;11.98;;;7.68;;
21800;SDS011;11062;51.164;16.924;2022-08-16T20:05:46;16.83;;;7.05;;
21800;SDS011;11062;51.164;16.924;2022-08-16T20:08:17;14.50;;;6.93;;
21800;SDS011;11062;51.164;16.924;2022-08-16T20:13:22;14.95;;;7.47;;
21800;SDS011;11062;51.164;16.924;2022-08-16T20:16:08;11.45;;;7.43;;
21800;SDS011;11062;51.164;16.924;2022-08-16T20:18:35;14.10;;;6.72;;
21800;SDS011;11062;51.164;16.924;2022-08-16T20:26:20;9.38;;;7.18;;
21800;SDS011;11062;51.164;16.924;2022-08-16T20:34:25;56.22;;;22.00;;
21800;SDS011;11062;51.164;16.924;2022-08-16T20:40:33;15.00;;;8.07;;
21800;SDS011;11062;51.164;16.924;2022-08-16T20:43:12;16.20;;;8.07;;
21800;SDS011;11062;51.164;16.924;2022-08-16T20:45:47;21.85;;;8.93;;
21800;SDS011;11062;51.164;16.924;2022-08-16T20:48:13;12.60;;;8.23;;
21800;SDS011;11062;51.164;16.924;2022-08-16T20:50:43;14.35;;;8.05;;
21800;SDS011;11062;51.164;16.924;2022-08-16T20:53:10;11.27;;;7.43;;
21800;SDS011;11062;51.164;16.924;2022-08-16T20:55:42;13.13;;;7.97;;
21800;SDS011;11062;51.164;16.924;2022-08-16T20:58:11;16.83;;;8.75;;
21800;SDS011;11062;51.164;16.924;2022-08-16T21:00:53;21.45;;;8.77;;
21800;SDS011;11062;51.164;16.924;2022-08-16T21:03:19;23.33;;;9.05;;
21800;SDS011;11062;51.164;16.924;2022-08-16T21:05:48;18.23;;;8.95;;
21800;SDS011;11062;51.164;16.924;2022-08-16T21:10:46;17.35;;;9.50;;
21800;SDS011;11062;51.164;16.924;2022-08-16T21:13:14;21.55;;;9.65;;
21800;SDS011;11062;51.164;16.924;2022-08-16T21:15:41;13.10;;;8.07;;
21800;SDS011;11062;51.164;16.924;2022-08-16T21:18:20;13.13;;;7.93;;
21800;SDS011;11062;51.164;16.924;2022-08-16T21:59:32;17.80;;;8.90;;
21800;SDS011;11062;51.164;16.924;2022-08-16T22:02:00;13.73;;;9.05;;
21800;SDS011;11062;51.164;16.924;2022-08-16T22:04:26;18.38;;;8.95;;
21800;SDS011;11062;51.164;16.924;2022-08-16T22:06:53;13.20;;;8.27;;
21800;SDS011;11062;51.164;16.924;2022-08-16T22:09:21;11.23;;;7.65;;
21800;SDS011;11062;51.164;16.924;2022-08-16T22:11:48;10.32;;;7.38;;
21800;SDS011;11062;51.164;16.924;2022-08-16T22:14:14;10.95;;;7.90;;
21800;SDS011;11062;51.164;16.924;2022-08-16T22:16:43;12.73;;;8.07;;
21800;SDS011;11062;51.164;16.924;2022-08-16T22:19:09;13.32;;;7.60;;
21800;SDS011;11062;51.164;16.924;2022-08-16T22:21:35;10.40;;;7.22;;
21800;SDS011;11062;51.164;16.924;2022-08-16T22:24:04;15.88;;;7.63;;
21800;SDS011;11062;51.164;16.924;2022-08-16T22:26:31;13.38;;;7.72;;
21800;SDS011;11062;51.164;16.924;2022-08-16T22:28:59;17.08;;;7.70;;
21800;SDS011;11062;51.164;16.924;2022-08-16T22:31:30;11.82;;;7.25;;
21800;SDS011;11062;51.164;16.924;2022-08-16T22:33:58;14.27;;;8.15;;
21800;SDS011;11062;51.164;16.924;2022-08-16T22:36:26;16.38;;;8.13;;
21800;SDS011;11062;51.164;16.924;2022-08-16T22:38:53;14.57;;;6.93;;
21800;SDS011;11062;51.164;16.924;2022-08-16T22:41:20;20.58;;;8.43;;
21800;SDS011;11062;51.164;16.924;2022-08-16T22:43:46;12.93;;;7.50;;
21800;SDS011;11062;51.164;16.924;2022-08-16T22:46:12;18.63;;;8.85;;
21800;SDS011;11062;51.164;16.924;2022-08-16T22:48:38;14.60;;;7.90;;
21800;SDS011;11062;51.164;16.924;2022-08-16T22:51:04;15.27;;;7.88;;
21800;SDS011;11062;51.164;16.924;2022-08-16T22:53:30;12.00;;;7.93;;
21800;SDS011;11062;51.164;16.924;2022-08-16T22:55:56;13.02;;;8.77;;
21800;SDS011;11062;51.164;16.924;2022-08-16T22:58:22;13.70;;;9.00;;
21800;SDS011;11062;51.164;16.924;2022-08-16T23:00:47;13.63;;;8.32;;
21800;SDS011;11062;51.164;16.924;2022-08-16T23:03:14;14.35;;;8.15;;
21800;SDS011;11062;51.164;16.924;2022-08-16T23:08:08;18.30;;;7.95;;
21800;SDS011;11062;51.164;16.924;2022-08-16T23:10:38;17.30;;;7.65;;
21800;SDS011;11062;51.164;16.924;2022-08-16T23:13:05;23.77;;;10.32;;
21800;SDS011;11062;51.164;16.924;2022-08-16T23:15:37;18.88;;;8.15;;
21800;SDS011;11062;51.164;16.924;2022-08-16T23:18:08;15.82;;;8.20;;
21800;SDS011;11062;51.164;16.924;2022-08-16T23:20:34;17.20;;;8.25;;
21800;SDS011;11062;51.164;16.924;2022-08-16T23:23:02;20.20;;;8.85;;
21800;SDS011;11062;51.164;16.924;2022-08-16T23:25:37;17.02;;;8.20;;
21800;SDS011;11062;51.164;16.924;2022-08-16T23:28:04;24.35;;;8.95;;
21800;SDS011;11062;51.164;16.924;2022-08-16T23:30:31;20.17;;;8.23;;
21800;SDS011;11062;51.164;16.924;2022-08-16T23:32:59;22.85;;;8.63;;
21800;SDS011;11062;51.164;16.924;2022-08-16T23:35:28;20.48;;;9.32;;
21800;SDS011;11062;51.164;16.924;2022-08-16T23:37:59;22.90;;;7.97;;
21800;SDS011;11062;51.164;16.924;2022-08-16T23:40:26;18.45;;;8.00;;
21800;SDS011;11062;51.164;16.924;2022-08-16T23:42:57;26.15;;;9.95;;
21800;SDS011;11062;51.164;16.924;2022-08-16T23:45:26;14.27;;;7.47;;
21800;SDS011;11062;51.164;16.924;2022-08-16T23:47:54;20.20;;;8.32;;
21800;SDS011;11062;51.164;16.924;2022-08-16T23:50:22;19.83;;;8.88;;
21800;SDS011;11062;51.164;16.924;2022-08-16T23:52:57;15.93;;;8.40;;
21800;SDS011;11062;51.164;16.924;2022-08-16T23:55:26;19.75;;;8.18;;
21800;SDS011;11062;51.164;16.924;2022-08-16T23:57:54;20.15;;;8.93;;
